Time;durP1;ratioP1;P1;durP2;ratioP2;P2;SDS_P1;SDS_P2;PMS_P1;PMS_P2;Temp;Humidity;BMP_temperature;BMP_pressure;BME280_temperature;BME280_humidity;BME280_pressure;Samples;Min_cycle;Max_cycle;Signal;HPM_P1;HPM_P2
2022/12/20 00:01:50;;;;;;;4.72;2.58;;;9.70;99.90;;;;;;5065566;28;20450;-68
2022/12/20 00:04:16;;;;;;;6.10;2.70;;;9.70;99.90;;;;;;5048063;28;20049;-68
2022/12/20 00:06:42;;;;;;;5.47;2.63;;;9.70;99.90;;;;;;5044544;28;20055;-68
2022/12/20 00:09:08;;;;;;;6.90;2.33;;;9.70;99.90;;;;;;5045151;28;20062;-69
2022/12/20 00:11:34;;;;;;;;;;;9.70;99.90;;;;;;5049184;28;20060;-69
2022/12/20 00:14:00;;;;;;;5.28;2.88;;;9.70;99.90;;;;;;5066251;28;19925;-69
2022/12/20 00:16:27;;;;;;;7.80;2.93;;;9.70;99.90;;;;;;5063240;28;20040;-69
2022/12/20 00:18:56;;;;;;;7.05;2.50;;;9.70;99.90;;;;;;5061580;28;20068;-69
2022/12/20 00:21:22;;;;;;;6.72;2.67;;;9.80;99.90;;;;;;5050716;28;20106;-69
2022/12/20 00:23:48;;;;;;;;;;;9.70;99.90;;;;;;5047818;28;20458;-73
2022/12/20 00:26:17;;;;;;;5.13;2.50;;;9.70;99.90;;;;;;5069030;28;19950;-68
2022/12/20 00:28:44;;;;;;;4.25;2.45;;;9.70;99.90;;;;;;5061326;28;20044;-69
2022/12/20 00:31:12;;;;;;;4.22;2.20;;;9.70;99.90;;;;;;5065120;28;20048;-69
2022/12/20 00:33:39;;;;;;;4.47;2.50;;;9.70;99.90;;;;;;5063738;28;20076;-69
2022/12/20 00:36:05;;;;;;;;;;;9.70;99.90;;;;;;5066703;28;20170;-69
2022/12/20 00:38:31;;;;;;;4.47;2.30;;;9.70;99.90;;;;;;5056398;28;19916;-69
2022/12/20 00:41:12;;;;;;;5.65;1.95;;;9.70;99.90;;;;;;5047653;28;20040;-69
2022/12/20 00:43:39;;;;;;;4.93;2.20;;;9.70;99.90;;;;;;5045076;28;20551;-69
2022/12/20 00:46:05;;;;;;;;;;;9.80;99.90;;;;;;5044257;28;20040;-69
2022/12/20 00:48:32;;;;;;;5.30;2.65;;;9.80;99.90;;;;;;5062796;28;20244;-69
2022/12/20 00:50:59;;;;;;;;;;;9.80;99.90;;;;;;5046326;28;20036;-69
2022/12/20 00:53:24;;;;;;;6.35;2.22;;;9.80;99.90;;;;;;5067961;28;20282;-69
2022/12/20 00:55:50;;;;;;;7.73;2.63;;;9.80;99.90;;;;;;5065252;28;20044;-69
2022/12/20 00:58:15;;;;;;;4.27;2.30;;;9.90;99.90;;;;;;5058275;28;20036;-69
2022/12/20 01:00:44;;;;;;;4.32;2.47;;;9.90;99.90;;;;;;5049032;28;20092;-69
2022/12/20 01:03:09;;;;;;;4.53;2.37;;;9.90;99.90;;;;;;5032277;28;20135;-68
2022/12/20 01:05:35;;;;;;;3.33;2.23;;;9.90;99.90;;;;;;5063188;28;20048;-78
2022/12/20 01:08:01;;;;;;;3.60;1.90;;;9.90;99.90;;;;;;5047021;28;20181;-77
2022/12/20 01:10:26;;;;;;;4.10;2.60;;;9.90;99.90;;;;;;5031769;28;20293;-79
2022/12/20 01:12:53;;;;;;;5.07;2.30;;;9.90;99.90;;;;;;5065429;28;20874;-75
2022/12/20 01:15:20;;;;;;;2.97;1.92;;;9.90;99.90;;;;;;5030419;28;20177;-70
2022/12/20 01:17:45;;;;;;;4.30;2.28;;;9.90;99.90;;;;;;5039703;28;20773;-69
2022/12/20 01:20:12;;;;;;;4.32;2.28;;;9.90;99.90;;;;;;5062842;28;20044;-69
2022/12/20 01:22:37;;;;;;;4.85;2.10;;;9.90;99.90;;;;;;5047768;28;20120;-69
2022/12/20 01:25:03;;;;;;;4.60;2.50;;;9.90;99.90;;;;;;5046509;28;20123;-69
2022/12/20 01:27:29;;;;;;;5.38;2.40;;;9.90;99.90;;;;;;5062399;28;20041;-69
2022/12/20 01:29:55;;;;;;;3.97;2.05;;;9.90;99.90;;;;;;5065316;28;20048;-69
2022/12/20 01:32:20;;;;;;;4.40;2.50;;;9.90;99.90;;;;;;5063136;28;20470;-69
2022/12/20 01:34:46;;;;;;;7.70;2.57;;;9.90;99.90;;;;;;5064665;28;20390;-69
2022/12/20 01:37:12;;;;;;;4.63;2.33;;;9.90;99.90;;;;;;5064070;28;20041;-69
2022/12/20 01:39:37;;;;;;;6.50;2.40;;;10.00;99.90;;;;;;5063355;28;20037;-69
2022/12/20 01:42:04;;;;;;;3.20;2.00;;;10.00;99.90;;;;;;5064129;28;20044;-69
2022/12/20 01:44:49;;;;;;;4.07;2.08;;;9.90;99.90;;;;;;5059360;28;20060;-69
2022/12/20 01:47:15;;;;;;;4.65;2.25;;;9.90;99.90;;;;;;5055894;28;20441;-69
2022/12/20 01:49:47;;;;;;;4.03;1.92;;;10.00;99.90;;;;;;5053176;28;20127;-69
2022/12/20 01:52:16;;;;;;;4.53;1.77;;;10.00;99.90;;;;;;5064863;28;20044;-69
2022/12/20 01:54:45;;;;;;;3.95;2.03;;;9.90;99.90;;;;;;5063002;28;20573;-69
2022/12/20 01:57:30;;;;;;;5.50;1.95;;;9.90;99.90;;;;;;5046725;28;20040;-69
2022/12/20 01:59:56;;;;;;;5.53;2.17;;;9.90;99.90;;;;;;5045019;28;20045;-69
2022/12/20 02:02:22;;;;;;;;;;;9.90;99.90;;;;;;5062865;28;20711;-69
2022/12/20 02:04:48;;;;;;;4.03;1.85;;;9.90;99.90;;;;;;5061795;28;20034;-69
2022/12/20 02:07:20;;;;;;;4.73;2.33;;;9.90;99.90;;;;;;5060142;28;20029;-69
2022/12/20 02:09:47;;;;;;;7.82;1.75;;;9.90;99.90;;;;;;5044624;28;20044;-69
2022/12/20 02:12:42;;;;;;;3.50;1.98;;;9.90;99.90;;;;;;5064186;28;20045;-69
2022/12/20 02:15:27;;;;;;;4.72;2.13;;;9.90;99.90;;;;;;5053392;28;20044;-69
2022/12/20 02:18:05;;;;;;;3.88;1.60;;;10.00;99.90;;;;;;5041041;28;20052;-71
2022/12/20 02:20:55;;;;;;;4.70;2.25;;;10.00;99.90;;;;;;5066363;28;20087;-69
2022/12/20 02:24:12;;;;;;;3.65;2.38;;;10.00;99.90;;;;;;5066081;28;20456;-69
2022/12/20 02:26:59;;;;;;;3.10;2.03;;;10.00;99.90;;;;;;5023212;28;20048;-69
2022/12/20 02:29:35;;;;;;;3.83;1.95;;;10.00;99.90;;;;;;5054878;28;20128;-69
2022/12/20 02:32:27;;;;;;;5.40;2.17;;;10.00;99.90;;;;;;5063289;28;20048;-69
2022/12/20 02:34:53;;;;;;;5.57;1.80;;;10.10;99.90;;;;;;5060033;28;20373;-69
2022/12/20 02:37:19;;;;;;;2.75;1.90;;;10.10;99.90;;;;;;5046866;28;20041;-69
2022/12/20 02:39:46;;;;;;;3.58;2.00;;;10.10;99.90;;;;;;5067027;28;20040;-69
2022/12/20 02:42:14;;;;;;;4.13;2.10;;;10.10;99.90;;;;;;5059590;28;20040;-69
2022/12/20 02:47:41;;;;;;;7.88;2.42;;;10.10;99.90;;;;;;5046619;28;20051;-69
2022/12/20 02:50:08;;;;;;;3.33;1.95;;;10.10;99.90;;;;;;5048993;28;20045;-70
2022/12/20 02:52:35;;;;;;;6.55;2.30;;;10.00;99.90;;;;;;5046677;28;20475;-69
2022/12/20 02:55:02;;;;;;;4.75;2.20;;;10.00;99.90;;;;;;5046648;28;20162;-69
2022/12/20 02:57:38;;;;;;;4.65;2.08;;;10.00;99.90;;;;;;5050518;28;20047;-70
2022/12/20 03:00:06;;;;;;;4.38;2.25;;;9.90;99.90;;;;;;5044885;28;20173;-69
2022/12/20 03:03:21;;;;;;;8.52;2.17;;;10.00;99.90;;;;;;5048764;28;20106;-70
2022/12/20 03:05:22;;;;;;;3.27;1.83;;;9.90;99.90;;;;;;5045899;28;20044;-70
2022/12/20 03:07:48;;;;;;;4.97;1.80;;;9.90;99.90;;;;;;5052416;28;20302;-70
2022/12/20 03:10:15;;;;;;;5.07;2.00;;;9.90;99.90;;;;;;5063840;28;20444;-69
2022/12/20 03:12:41;;;;;;;5.20;2.42;;;9.80;99.90;;;;;;5066630;28;20393;-69
2022/12/20 03:15:08;;;;;;;4.63;2.13;;;9.80;99.90;;;;;;5064406;28;20118;-70
2022/12/20 03:17:34;;;;;;;3.67;1.90;;;9.80;99.90;;;;;;5063756;28;20081;-70
2022/12/20 03:19:59;;;;;;;5.75;2.10;;;9.80;99.90;;;;;;5049836;28;20056;-70
2022/12/20 03:22:25;;;;;;;3.53;1.90;;;9.80;99.90;;;;;;5047446;28;20067;-69
2022/12/20 03:24:51;;;;;;;3.90;1.80;;;9.80;99.90;;;;;;5063368;28;20075;-70
2022/12/20 03:27:17;;;;;;;3.72;2.40;;;9.80;99.90;;;;;;5031743;28;20094;-69
2022/12/20 03:29:44;;;;;;;3.03;1.90;;;9.80;99.90;;;;;;5048137;28;20160;-69
2022/12/20 03:32:10;;;;;;;5.35;2.05;;;9.80;99.90;;;;;;5045211;28;20068;-70
2022/12/20 03:34:36;;;;;;;5.15;1.70;;;9.80;99.90;;;;;;5044549;28;20041;-69
2022/12/20 03:37:02;;;;;;;6.18;1.85;;;9.80;99.90;;;;;;5054929;28;20036;-69
2022/12/20 03:39:28;;;;;;;4.72;2.17;;;9.80;99.90;;;;;;5040331;28;20097;-69
2022/12/20 03:41:54;;;;;;;4.90;2.20;;;9.80;99.90;;;;;;5060353;28;20044;-70
2022/12/20 03:44:19;;;;;;;3.57;1.90;;;9.80;99.90;;;;;;5049132;28;20044;-70
2022/12/20 03:46:45;;;;;;;2.53;1.80;;;9.80;99.90;;;;;;5047074;28;20043;-70
2022/12/20 03:49:11;;;;;;;3.70;2.00;;;9.70;99.90;;;;;;5046840;28;20064;-70
2022/12/20 03:51:36;;;;;;;5.30;1.97;;;9.80;99.90;;;;;;5064148;28;20032;-70
2022/12/20 03:54:02;;;;;;;8.43;2.37;;;9.80;99.90;;;;;;5065656;28;20064;-70
2022/12/20 03:56:27;;;;;;;5.57;2.10;;;9.80;99.90;;;;;;5066875;28;20070;-70
2022/12/20 03:58:53;;;;;;;4.27;1.90;;;9.80;99.90;;;;;;5065615;28;20052;-69
2022/12/20 04:01:24;;;;;;;3.53;2.10;;;9.80;99.90;;;;;;5065660;28;20043;-70
2022/12/20 04:03:50;;;;;;;6.15;2.08;;;9.80;99.90;;;;;;5048171;28;20425;-69
2022/12/20 04:06:16;;;;;;;5.43;2.23;;;9.80;99.90;;;;;;5065556;28;20044;-69
2022/12/20 04:08:42;;;;;;;;;;;9.80;99.90;;;;;;5047381;28;20043;-69
2022/12/20 04:11:16;;;;;;;4.32;1.50;;;9.80;99.90;;;;;;5062624;28;20326;-69
2022/12/20 04:13:47;;;;;;;6.00;2.28;;;9.80;99.90;;;;;;5064694;28;20037;-69
2022/12/20 04:16:15;;;;;;;5.60;2.10;;;9.80;99.90;;;;;;5049498;28;20090;-69
2022/12/20 04:18:40;;;;;;;4.43;2.55;;;9.80;99.90;;;;;;5049437;28;20047;-70
2022/12/20 04:21:06;;;;;;;5.07;2.55;;;9.80;99.90;;;;;;5044880;28;20482;-69
2022/12/20 04:23:34;;;;;;;4.53;2.45;;;9.80;99.90;;;;;;5066310;28;20040;-70
2022/12/20 04:26:01;;;;;;;6.80;2.50;;;9.80;99.90;;;;;;5062720;28;20075;-70
2022/12/20 04:28:27;;;;;;;3.75;2.08;;;9.90;99.90;;;;;;5058828;28;20624;-69
2022/12/20 04:30:53;;;;;;;5.18;2.67;;;9.80;99.90;;;;;;5064124;28;20028;-69
2022/12/20 04:33:18;;;;;;;4.47;2.55;;;9.90;99.90;;;;;;5066266;28;20400;-69
2022/12/20 04:35:44;;;;;;;5.10;2.30;;;9.90;99.90;;;;;;5063531;28;20040;-69
2022/12/20 04:38:10;;;;;;;4.40;2.43;;;9.90;99.90;;;;;;5043422;28;20502;-69
2022/12/20 04:40:35;;;;;;;5.90;2.33;;;9.90;99.90;;;;;;5063557;28;20045;-69
2022/12/20 04:43:01;;;;;;;3.93;2.10;;;9.90;99.90;;;;;;5056877;28;20182;-69
2022/12/20 04:45:26;;;;;;;5.27;2.47;;;9.90;99.90;;;;;;5064009;28;20398;-69
2022/12/20 04:47:52;;;;;;;5.00;2.17;;;9.90;99.90;;;;;;5063598;28;20036;-69
2022/12/20 04:50:18;;;;;;;8.50;2.37;;;9.90;99.90;;;;;;5046875;28;20405;-69
2022/12/20 04:55:29;;;;;;;7.18;2.30;;;9.90;99.90;;;;;;5063507;28;20123;-69
2022/12/20 04:57:54;;;;;;;5.10;2.40;;;10.00;99.90;;;;;;5045434;28;20479;-70
2022/12/20 05:00:21;;;;;;;4.77;2.67;;;10.00;99.90;;;;;;5062764;28;20037;-69
2022/12/20 05:02:46;;;;;;;4.93;2.63;;;10.00;99.90;;;;;;5064566;28;20045;-69
2022/12/20 05:05:12;;;;;;;4.57;2.13;;;10.10;99.90;;;;;;5048229;28;20055;-69
2022/12/20 05:07:38;;;;;;;3.28;2.00;;;10.00;99.90;;;;;;5058392;28;20446;-69
2022/12/20 05:10:05;;;;;;;3.20;2.03;;;10.00;99.90;;;;;;5045236;28;20048;-69
2022/12/20 05:12:30;;;;;;;4.97;2.42;;;10.00;99.90;;;;;;5068506;22;20049;-71
2022/12/20 05:14:59;;;;;;;5.30;2.40;;;10.10;99.90;;;;;;5039819;28;20128;-72
2022/12/20 05:17:24;;;;;;;5.20;2.10;;;10.10;99.90;;;;;;5041558;28;20094;-71
2022/12/20 05:19:50;;;;;;;4.73;2.23;;;10.10;99.90;;;;;;5039469;28;20516;-71
2022/12/20 05:27:44;;;;;;;4.65;2.22;;;10.10;99.90;;;;;;5040087;28;20498;-71
2022/12/20 05:30:10;;;;;;;4.63;2.23;;;10.10;99.90;;;;;;5043578;28;20048;-71
2022/12/20 05:32:35;;;;;;;5.05;2.55;;;10.10;99.90;;;;;;5044421;28;20037;-71
2022/12/20 05:35:01;;;;;;;3.87;1.80;;;10.10;99.90;;;;;;5044708;28;20106;-72
2022/12/20 05:37:27;;;;;;;8.20;2.10;;;10.20;99.90;;;;;;5043891;28;20049;-71
2022/12/20 05:39:52;;;;;;;6.80;2.00;;;10.20;99.90;;;;;;5038174;28;20325;-71
2022/12/20 05:42:18;;;;;;;4.33;1.77;;;10.10;99.90;;;;;;5051289;28;20470;-71
2022/12/20 05:44:44;;;;;;;6.07;2.37;;;10.10;99.90;;;;;;5036517;28;20041;-71
2022/12/20 05:47:09;;;;;;;3.63;1.90;;;10.10;99.90;;;;;;5024406;28;20175;-71
2022/12/20 05:49:35;;;;;;;3.23;2.13;;;10.10;99.90;;;;;;5041170;28;20355;-72
2022/12/20 05:52:01;;;;;;;3.10;2.10;;;10.20;99.90;;;;;;5039678;28;20544;-71
2022/12/20 05:54:27;;;;;;;4.82;2.33;;;10.10;99.90;;;;;;5052683;28;20045;-71
2022/12/20 05:56:52;;;;;;;3.87;1.83;;;10.20;99.90;;;;;;5040004;28;20044;-71
2022/12/20 05:59:18;;;;;;;5.47;2.53;;;10.10;99.90;;;;;;5045733;28;20167;-71
2022/12/20 06:01:44;;;;;;;4.70;1.83;;;10.10;99.90;;;;;;5045431;28;20056;-71
2022/12/20 06:04:12;;;;;;;5.57;2.20;;;10.20;99.90;;;;;;5029621;28;20117;-72
2022/12/20 06:06:37;;;;;;;4.78;1.73;;;10.20;99.90;;;;;;5046000;28;20049;-71
2022/12/20 06:09:03;;;;;;;7.17;2.33;;;10.20;99.90;;;;;;5052154;28;20041;-71
2022/12/20 06:11:29;;;;;;;4.87;2.33;;;10.30;99.90;;;;;;5041936;28;20463;-71
2022/12/20 06:13:54;;;;;;;4.27;1.97;;;10.30;99.90;;;;;;5047476;28;20099;-71
2022/12/20 06:16:22;;;;;;;7.07;2.43;;;10.30;99.90;;;;;;5045767;28;20037;-72
2022/12/20 06:18:48;;;;;;;6.47;1.88;;;10.30;99.90;;;;;;5032593;28;20033;-71
2022/12/20 06:21:14;;;;;;;6.82;1.80;;;10.30;99.90;;;;;;5045205;28;20072;-71
2022/12/20 06:23:40;;;;;;;3.67;2.10;;;10.40;99.90;;;;;;5052172;28;20045;-71
2022/12/20 06:26:08;;;;;;;6.90;2.43;;;10.40;99.90;;;;;;5042869;28;20327;-71
2022/12/20 06:28:34;;;;;;;5.90;2.30;;;10.40;99.90;;;;;;5036637;28;20125;-72
2022/12/20 06:31:00;;;;;;;2.60;1.70;;;10.40;99.90;;;;;;5040379;28;20340;-72
2022/12/20 06:33:26;;;;;;;5.90;2.97;;;10.40;99.90;;;;;;5048943;28;20048;-72
2022/12/20 06:35:52;;;;;;;4.13;2.17;;;10.40;99.90;;;;;;5046354;28;20041;-71
2022/12/20 06:38:18;;;;;;;6.05;2.20;;;10.40;99.90;;;;;;5044756;28;20069;-71
2022/12/20 06:40:43;;;;;;;4.33;2.17;;;10.40;99.90;;;;;;5041292;28;20048;-72
2022/12/20 06:43:09;;;;;;;5.13;2.30;;;10.40;99.90;;;;;;5037437;28;20482;-72
2022/12/20 06:45:35;;;;;;;3.73;2.23;;;10.40;99.90;;;;;;5044288;28;20033;-72
2022/12/20 06:48:01;;;;;;;4.03;2.15;;;10.50;99.90;;;;;;5053826;28;20112;-74
2022/12/20 06:50:26;;;;;;;3.67;2.30;;;10.40;99.90;;;;;;5052446;28;20140;-70
2022/12/20 06:52:52;;;;;;;8.03;2.77;;;10.40;99.90;;;;;;5042610;28;20487;-71
2022/12/20 06:55:18;;;;;;;4.23;2.63;;;10.40;99.90;;;;;;5035333;28;20922;-69
2022/12/20 06:57:44;;;;;;;4.90;2.25;;;10.40;99.90;;;;;;5046726;28;20045;-71
2022/12/20 07:00:14;;;;;;;4.93;2.45;;;10.40;99.90;;;;;;5049796;28;20495;-73
2022/12/20 07:02:39;;;;;;;5.20;2.45;;;10.40;99.90;;;;;;5047149;28;20073;-76
2022/12/20 07:05:06;;;;;;;8.15;2.45;;;10.40;99.90;;;;;;5054245;28;20077;-69
2022/12/20 07:07:31;;;;;;;6.47;2.50;;;10.40;99.90;;;;;;5043250;28;20112;-71
2022/12/20 07:09:58;;;;;;;6.80;2.80;;;10.40;99.90;;;;;;5044159;28;20131;-72
2022/12/20 07:12:23;;;;;;;3.97;2.30;;;10.40;99.90;;;;;;5040227;28;20298;-69
2022/12/20 07:14:49;;;;;;;5.83;2.17;;;10.30;99.90;;;;;;5042329;28;20049;-71
2022/12/20 07:17:15;;;;;;;3.53;2.50;;;10.30;99.90;;;;;;5015578;28;20414;-71
2022/12/20 07:19:41;;;;;;;7.57;2.70;;;10.30;99.90;;;;;;5048401;28;20269;-72
2022/12/20 07:22:07;;;;;;;4.95;2.40;;;10.30;99.90;;;;;;5056605;28;20492;-69
2022/12/20 07:24:33;;;;;;;4.90;1.95;;;10.30;99.90;;;;;;5046369;28;20063;-70
2022/12/20 07:27:00;;;;;;;6.28;2.40;;;10.30;99.90;;;;;;5030365;28;22077;-69
2022/12/20 07:29:25;;;;;;;;;;;10.30;99.90;;;;;;5037522;28;20417;-70
2022/12/20 07:31:51;;;;;;;4.55;2.50;;;10.30;99.90;;;;;;5041335;28;19917;-72
2022/12/20 07:34:17;;;;;;;4.57;2.75;;;10.30;99.90;;;;;;5047910;28;20048;-71
2022/12/20 07:36:43;;;;;;;5.78;2.20;;;10.30;99.90;;;;;;5044184;28;22075;-71
2022/12/20 07:39:09;;;;;;;3.67;2.05;;;10.30;99.90;;;;;;5043464;28;20033;-71
2022/12/20 07:41:35;;;;;;;4.78;2.38;;;10.30;99.90;;;;;;5047771;28;20540;-75
2022/12/20 07:44:01;;;;;;;6.30;2.28;;;10.30;99.90;;;;;;5043809;28;20420;-76
2022/12/20 07:46:27;;;;;;;5.65;2.80;;;10.30;99.90;;;;;;5046408;28;20049;-71
2022/12/20 07:48:52;;;;;;;5.47;2.47;;;10.30;99.90;;;;;;5043134;28;20086;-75
2022/12/20 07:51:36;;;;;;;4.70;2.47;;;10.30;99.90;;;;;;5047401;28;20045;-74
2022/12/20 07:54:10;;;;;;;4.22;2.47;;;10.30;99.90;;;;;;5040084;28;20045;-70
2022/12/20 07:56:40;;;;;;;4.50;2.15;;;10.40;99.90;;;;;;5047983;28;20051;-70
2022/12/20 07:59:06;;;;;;;5.57;2.33;;;10.40;99.90;;;;;;5037620;28;20106;-72
2022/12/20 08:01:32;;;;;;;4.50;2.80;;;10.40;99.90;;;;;;5037501;28;20479;-70
2022/12/20 08:04:04;;;;;;;5.33;3.17;;;10.40;99.90;;;;;;5042367;28;20049;-71
2022/12/20 08:06:32;;;;;;;3.60;2.33;;;10.40;99.90;;;;;;5040922;28;20278;-69
2022/12/20 08:09:01;;;;;;;5.72;2.45;;;10.40;99.90;;;;;;5040010;28;20561;-69
2022/12/20 08:11:30;;;;;;;6.57;2.33;;;10.40;99.90;;;;;;5038346;28;20116;-69
2022/12/20 08:13:56;;;;;;;11.90;3.35;;;10.40;99.90;;;;;;5022537;28;20391;-69
2022/12/20 08:16:22;;;;;;;3.92;2.10;;;10.50;99.90;;;;;;5036838;28;20099;-69
2022/12/20 08:18:47;;;;;;;5.97;2.67;;;10.50;99.90;;;;;;5041724;28;20029;-68
2022/12/20 08:21:13;;;;;;;5.10;2.40;;;10.50;99.90;;;;;;5044351;28;20203;-68
2022/12/20 08:23:39;;;;;;;4.43;2.20;;;10.50;99.90;;;;;;5024451;28;20065;-69
2022/12/20 08:26:05;;;;;;;4.43;2.63;;;10.40;99.90;;;;;;5043478;28;20065;-69
2022/12/20 08:28:31;;;;;;;4.45;2.17;;;10.50;99.90;;;;;;5036136;28;20483;-69
2022/12/20 08:31:05;;;;;;;8.73;2.40;;;10.50;99.90;;;;;;5028080;28;20033;-69
2022/12/20 08:33:32;;;;;;;3.45;2.20;;;10.50;99.90;;;;;;5034172;28;20049;-69
2022/12/20 08:36:01;;;;;;;3.75;1.85;;;10.40;99.90;;;;;;5038872;28;20402;-69
2022/12/20 08:38:28;;;;;;;6.38;2.78;;;10.50;99.90;;;;;;5041001;28;20120;-69
2022/12/20 08:40:54;;;;;;;3.92;2.17;;;10.50;99.90;;;;;;5035611;28;20575;-68
2022/12/20 08:43:19;;;;;;;3.83;2.45;;;10.50;99.90;;;;;;5041335;28;20068;-69
2022/12/20 08:45:52;;;;;;;7.47;2.50;;;10.50;99.90;;;;;;5027147;28;20048;-71
2022/12/20 08:48:18;;;;;;;3.10;1.80;;;10.50;99.90;;;;;;5039977;28;20289;-69
2022/12/20 08:50:44;;;;;;;3.87;2.43;;;10.50;99.90;;;;;;5045632;28;20049;-69
2022/12/20 08:53:09;;;;;;;7.18;2.65;;;10.50;99.90;;;;;;5022075;28;20048;-69
2022/12/20 08:55:35;;;;;;;4.43;1.93;;;10.50;99.90;;;;;;5043796;28;20671;-69
2022/12/20 08:58:01;;;;;;;4.33;2.47;;;10.50;99.90;;;;;;5055278;28;20064;-69
2022/12/20 09:00:26;;;;;;;6.60;2.47;;;10.50;99.90;;;;;;5042911;28;20064;-69
2022/12/20 09:02:53;;;;;;;4.93;2.33;;;10.50;99.90;;;;;;5046226;28;20043;-69
2022/12/20 09:05:19;;;;;;;3.83;2.38;;;10.50;99.90;;;;;;5042845;28;20298;-69
2022/12/20 09:07:45;;;;;;;4.40;2.20;;;10.50;99.90;;;;;;5046622;28;20353;-69
2022/12/20 09:10:12;;;;;;;5.00;2.13;;;10.60;99.90;;;;;;5051555;28;20487;-69
2022/12/20 09:12:37;;;;;;;5.00;1.95;;;10.60;99.90;;;;;;5053167;28;20083;-69
2022/12/20 09:15:04;;;;;;;4.30;2.08;;;10.60;99.90;;;;;;5050146;28;20077;-69
2022/12/20 09:17:30;;;;;;;4.82;2.13;;;10.60;99.90;;;;;;5044555;28;20041;-69
2022/12/20 09:19:56;;;;;;;2.97;2.00;;;10.60;99.90;;;;;;5044602;28;20075;-69
2022/12/20 09:22:21;;;;;;;4.83;2.27;;;10.60;99.90;;;;;;5045913;28;20402;-69
2022/12/20 09:24:48;;;;;;;4.33;1.73;;;10.60;99.90;;;;;;5050876;28;20029;-69
2022/12/20 09:27:14;;;;;;;4.75;1.90;;;10.60;99.90;;;;;;5048539;28;20147;-69
2022/12/20 09:29:39;;;;;;;4.18;1.60;;;10.60;99.90;;;;;;5055493;28;20119;-69
2022/12/20 09:32:05;;;;;;;5.67;2.00;;;10.70;99.90;;;;;;5040441;28;20045;-69
2022/12/20 09:34:31;;;;;;;6.82;2.20;;;10.60;99.90;;;;;;5041182;28;20064;-69
2022/12/20 09:36:56;;;;;;;4.20;1.80;;;10.70;99.90;;;;;;5037829;28;20091;-69
2022/12/20 09:39:22;;;;;;;3.37;1.50;;;10.70;99.90;;;;;;5043384;28;20041;-69
2022/12/20 09:41:48;;;;;;;3.27;1.80;;;10.70;99.90;;;;;;5041990;28;20369;-69
2022/12/20 09:44:16;;;;;;;3.23;1.80;;;10.80;99.90;;;;;;5045178;28;20627;-69
2022/12/20 09:46:43;;;;;;;4.38;1.55;;;10.80;99.90;;;;;;5039769;28;20100;-69
2022/12/20 09:49:16;;;;;;;3.90;2.25;;;10.90;99.90;;;;;;5044638;28;20132;-69
2022/12/20 09:51:56;;;;;;;5.85;1.85;;;10.80;99.90;;;;;;5045841;28;20048;-69
2022/12/20 09:54:30;;;;;;;3.42;1.70;;;10.90;99.90;;;;;;5048111;28;20325;-69
2022/12/20 09:57:06;;;;;;;3.13;1.67;;;10.80;99.90;;;;;;5045532;28;20397;-69
2022/12/20 09:59:35;;;;;;;3.95;2.00;;;10.80;99.90;;;;;;5036966;28;20135;-69
2022/12/20 10:02:11;;;;;;;5.75;1.70;;;10.80;99.90;;;;;;5049001;28;20037;-69
2022/12/20 10:04:38;;;;;;;4.87;1.53;;;10.80;99.90;;;;;;5045009;28;20045;-69
2022/12/20 10:07:32;;;;;;;2.85;1.65;;;10.80;99.90;;;;;;5051715;28;20049;-69
2022/12/20 10:10:16;;;;;;;5.05;1.77;;;10.80;99.90;;;;;;5036023;28;20417;-69
2022/12/20 10:13:05;;;;;;;3.47;1.90;;;10.80;99.90;;;;;;5048582;28;20037;-69
2022/12/20 10:15:54;;;;;;;5.93;1.85;;;10.90;99.90;;;;;;5037981;28;20043;-69
2022/12/20 10:19:16;;;;;;;4.75;1.40;;;10.90;99.90;;;;;;5040862;28;20048;-69
2022/12/20 10:21:55;;;;;;;4.05;1.55;;;10.80;99.90;;;;;;4986259;28;20049;-69
2022/12/20 10:24:29;;;;;;;4.20;1.98;;;10.80;99.90;;;;;;5004678;28;20647;-69
2022/12/20 10:27:01;;;;;;;2.85;1.40;;;10.80;99.90;;;;;;5038674;28;20532;-69
2022/12/20 10:29:28;;;;;;;3.42;1.63;;;10.80;99.90;;;;;;5044080;28;20525;-69
2022/12/20 10:31:59;;;;;;;4.45;1.60;;;10.80;99.90;;;;;;5042314;28;20462;-69
2022/12/20 10:34:25;;;;;;;4.00;1.70;;;10.90;99.90;;;;;;5042782;28;20129;-69
2022/12/20 10:37:14;;;;;;;2.50;1.50;;;10.90;99.90;;;;;;5040667;28;20116;-69
2022/12/20 10:39:47;;;;;;;3.78;1.67;;;10.90;99.90;;;;;;5053585;28;20087;-69
2022/12/20 10:42:37;;;;;;;9.30;1.80;;;10.80;99.90;;;;;;5036941;28;20060;-69
2022/12/20 10:45:13;;;;;;;6.00;2.40;;;10.80;99.90;;;;;;5046557;28;20157;-69
2022/12/20 10:47:42;;;;;;;5.70;2.03;;;10.80;99.90;;;;;;5048005;28;20033;-69
2022/12/20 10:50:28;;;;;;;3.03;1.58;;;10.80;99.90;;;;;;5052020;28;20102;-69
2022/12/20 10:53:09;;;;;;;4.43;1.75;;;10.80;99.90;;;;;;5057511;28;20489;-69
2022/12/20 10:55:41;;;;;;;6.78;1.70;;;10.80;99.90;;;;;;5047481;28;20412;-69
2022/12/20 10:58:26;;;;;;;3.30;1.42;;;10.80;99.90;;;;;;5046631;28;20113;-68
2022/12/20 11:01:21;;;;;;;4.07;1.98;;;10.80;99.90;;;;;;5045418;28;20534;-69
2022/12/20 11:04:06;;;;;;;2.47;1.48;;;10.80;99.90;;;;;;5045568;28;20051;-69
2022/12/20 11:06:38;;;;;;;4.10;1.80;;;10.80;99.90;;;;;;5047163;28;20080;-69
2022/12/20 11:09:36;;;;;;;3.00;1.70;;;10.80;99.90;;;;;;5045044;28;20065;-69
2022/12/20 11:14:36;;;;;;;3.58;1.95;;;10.80;99.90;;;;;;5008118;28;20053;-68
2022/12/20 11:17:31;;;;;;;5.85;1.73;;;10.80;99.90;;;;;;4990669;28;20065;-68
2022/12/20 11:20:21;;;;;;;4.80;1.35;;;10.80;99.90;;;;;;4995431;28;20045;-67
2022/12/20 11:23:12;;;;;;;3.30;1.75;;;10.80;99.90;;;;;;5008858;28;20406;-68
2022/12/20 11:26:07;;;;;;;5.57;1.88;;;10.80;99.90;;;;;;5007763;28;20206;-67
2022/12/20 11:29:03;;;;;;;3.15;1.70;;;10.70;99.90;;;;;;4993273;28;20038;-68
2022/12/20 11:31:47;;;;;;;7.70;1.98;;;10.70;99.90;;;;;;5006080;28;20054;-67
2022/12/20 11:34:18;;;;;;;5.00;1.80;;;10.70;99.90;;;;;;5009810;28;20045;-68
2022/12/20 11:36:54;;;;;;;3.92;1.90;;;10.70;99.90;;;;;;5002223;28;20044;-67
2022/12/20 11:39:38;;;;;;;2.75;1.85;;;10.70;99.90;;;;;;4988788;28;20050;-67
2022/12/20 11:42:10;;;;;;;5.82;2.53;;;10.70;99.90;;;;;;5012344;28;20046;-70
2022/12/20 11:44:56;;;;;;;3.38;1.95;;;10.60;99.90;;;;;;4991694;28;20053;-70
2022/12/20 11:47:49;;;;;;;4.75;2.45;;;10.60;99.90;;;;;;4973620;28;20056;-71
2022/12/20 11:50:44;;;;;;;4.70;1.92;;;10.60;99.90;;;;;;4992082;28;20045;-70
2022/12/20 11:53:20;;;;;;;5.15;1.85;;;10.60;99.90;;;;;;5003648;28;20049;-71
2022/12/20 11:55:50;;;;;;;4.55;2.30;;;10.60;99.90;;;;;;5007850;28;20045;-71
2022/12/20 11:58:19;;;;;;;3.88;1.98;;;10.60;99.90;;;;;;4993486;28;20134;-70
2022/12/20 12:01:07;;;;;;;4.20;2.50;;;10.60;99.90;;;;;;4989803;28;20131;-70
2022/12/20 12:03:38;;;;;;;6.95;2.72;;;10.60;99.90;;;;;;4995940;28;20041;-70
2022/12/20 12:06:07;;;;;;;6.32;2.35;;;10.60;99.90;;;;;;4995304;28;20101;-67
2022/12/20 12:08:52;;;;;;;4.30;2.63;;;10.60;99.90;;;;;;5009148;28;20415;-68
2022/12/20 12:11:25;;;;;;;4.80;2.50;;;10.50;99.90;;;;;;5007993;28;20304;-68
2022/12/20 12:13:52;;;;;;;6.72;2.53;;;10.50;99.90;;;;;;5009079;28;20156;-68
2022/12/20 12:16:31;;;;;;;6.82;2.45;;;10.50;99.90;;;;;;5009639;28;20061;-68
2022/12/20 12:18:59;;;;;;;3.65;2.00;;;10.50;99.90;;;;;;5008937;28;20042;-68
2022/12/20 12:21:50;;;;;;;4.10;2.40;;;10.50;99.90;;;;;;5009927;28;20184;-68
2022/12/20 12:24:38;;;;;;;3.38;2.10;;;10.50;99.90;;;;;;4991178;28;20119;-68
2022/12/20 12:27:04;;;;;;;;;;;10.50;99.90;;;;;;5009386;28;20038;-68
2022/12/20 12:29:35;;;;;;;3.83;2.30;;;10.50;99.90;;;;;;4992039;28;20477;-68
2022/12/20 12:32:16;;;;;;;6.32;2.30;;;10.40;99.90;;;;;;4994683;28;20042;-67
2022/12/20 12:35:16;;;;;;;3.63;2.30;;;10.40;99.90;;;;;;5006643;28;20117;-67
2022/12/20 12:38:05;;;;;;;5.57;2.83;;;10.40;99.90;;;;;;4988690;28;20037;-67
2022/12/20 12:40:52;;;;;;;4.82;2.85;;;10.40;99.90;;;;;;5007229;28;20046;-67
2022/12/20 12:43:35;;;;;;;5.70;3.00;;;10.40;99.90;;;;;;4991678;28;20053;-68
2022/12/20 12:46:10;;;;;;;4.22;2.45;;;10.40;99.90;;;;;;5004017;28;20761;-67
2022/12/20 12:49:00;;;;;;;5.25;3.15;;;10.40;99.90;;;;;;5008423;28;20492;-67
2022/12/20 12:51:34;;;;;;;6.13;3.25;;;10.40;99.90;;;;;;5008205;28;20046;-67
2022/12/20 12:54:22;;;;;;;5.88;3.15;;;10.40;99.90;;;;;;5002975;28;20046;-66
2022/12/20 12:56:48;;;;;;;;;;;10.40;99.90;;;;;;5007492;28;20084;-67
2022/12/20 12:59:34;;;;;;;4.03;2.60;;;10.40;99.90;;;;;;4991368;28;20132;-67
2022/12/20 13:02:13;;;;;;;6.22;3.03;;;10.50;99.90;;;;;;5001610;28;20092;-67
2022/12/20 13:05:13;;;;;;;5.43;3.50;;;10.50;99.90;;;;;;4991423;28;20057;-67
2022/12/20 13:07:42;;;;;;;7.40;3.33;;;10.50;99.90;;;;;;4973905;28;20081;-67
2022/12/20 13:10:08;;;;;;;7.70;3.50;;;10.50;99.90;;;;;;4990454;28;20049;-67
2022/12/20 13:12:36;;;;;;;6.83;3.47;;;10.50;99.90;;;;;;5008045;28;20048;-68
2022/12/20 13:15:21;;;;;;;3.92;3.17;;;10.50;99.90;;;;;;4975463;28;20431;-67
2022/12/20 13:17:55;;;;;;;7.45;3.25;;;10.50;99.90;;;;;;5012034;28;20041;-68
2022/12/20 13:20:36;;;;;;;6.55;3.88;;;10.50;99.90;;;;;;4991924;28;20046;-68
2022/12/20 13:23:06;;;;;;;6.00;3.42;;;10.50;99.90;;;;;;5005400;28;20392;-67
2022/12/20 13:25:36;;;;;;;7.53;4.30;;;10.50;99.90;;;;;;5005595;28;20519;-67